| time (UTC) | temp F | wind direction | speed knots | gust knots | rain 1hr in | rain 24hr in | rain mn in | humidity % | barometer mb |
| 20260510095205 | 58 | 283 | 0.9 | 0.9 | 0.00 | 0.00 | 0.00 | 91 | 4162.4 |
| 20260510094703 | 58 | 278 | 0.9 | 0.9 | 0.00 | 0.00 | 0.00 | 91 | 4162.0 |
| 20260510094200 | 58 | 272 | 0.0 | 0.9 | 0.00 | 0.00 | 0.00 | 91 | 4162.1 |
| 20260510093655 | 58 | 271 | 0.0 | 0.0 | 0.00 | 0.00 | 0.00 | 90 | 4162.1 |
| 20260510093153 | 58 | 271 | 0.0 | 0.0 | 0.00 | 0.00 | 0.00 | 90 | 4162.0 |
| 20260510092649 | 58 | 270 | 0.0 | 0.0 | 0.00 | 0.00 | 0.00 | 89 | 4162.2 |
| 20260510092145 | 58 | 269 | 0.0 | 0.0 | 0.00 | 0.00 | 0.00 | 90 | 4162.2 |
| 20260510091641 | 58 | 271 | 0.0 | 0.0 | 0.00 | 0.00 | 0.00 | 90 | 4162.2 |
| 20260510091137 | 58 | 270 | 0.0 | 0.9 | 0.00 | 0.00 | 0.00 | 90 | 4162.0 |
| 20260510090634 | 58 | 267 | 0.0 | 0.0 | 0.00 | 0.00 | 0.00 | 90 | 4161.8 |
| 20260510090130 | 58 | 2 | 0.9 | 0.9 | 0.00 | 0.00 | 0.00 | 91 | 4161.9 |
| 20260510085626 | 58 | 0 | 0.9 | 0.9 | 0.00 | 0.00 | 0.00 | 92 | 4162.4 |
| 20260510085121 | 57 | 349 | 0.0 | 0.9 | 0.00 | 0.00 | 0.00 | 92 | 4162.5 |
| 20260510084618 | 57 | 356 | 0.0 | 0.9 | 0.00 | 0.00 | 0.00 | 92 | 4162.5 |
| 20260510084115 | 57 | 355 | 0.9 | 0.9 | 0.00 | 0.00 | 0.00 | 93 | 4162.3 |
| 20260510083611 | 57 | 341 | 0.9 | 0.9 | 0.00 | 0.00 | 0.00 | 94 | 4162.2 |
| 20260510083107 | 56 | 352 | 0.9 | 0.9 | 0.00 | 0.00 | 0.00 | 94 | 4162.1 |
| 20260510082604 | 56 | 341 | 0.9 | 0.9 | 0.00 | 0.00 | 0.00 | 95 | 4162.0 |
| 20260510082059 | 56 | 0 | 0.9 | 0.9 | 0.00 | 0.00 | 0.00 | 95 | 4161.9 |
| 20260510081555 | 57 | 350 | 1.7 | 1.7 | 0.00 | 0.00 | 0.00 | 95 | 4161.9 |
| 20260510081051 | 57 | 328 | 0.9 | 0.9 | 0.00 | 0.00 | 0.00 | 95 | 4161.8 |
| 20260510080550 | 56 | 307 | 0.0 | 0.0 | 0.00 | 0.00 | 0.00 | 95 | 4161.4 |
| 20260510080047 | 56 | 308 | 0.0 | 0.0 | 0.00 | 0.00 | 0.00 | 95 | 4161.4 |
| 20260510075544 | 56 | 296 | 0.0 | 0.0 | 0.00 | 0.00 | 0.00 | 95 | 4161.7 |
| 20260510075041 | 56 | 296 | 0.0 | 0.0 | 0.00 | 0.00 | 0.00 | 95 | 4161.6 |
| 20260510074539 | 56 | 295 | 0.0 | 0.0 | 0.00 | 0.00 | 0.00 | 95 | 4161.6 |
| 20260510074034 | 56 | 296 | 0.0 | 0.0 | 0.00 | 0.00 | 0.00 | 95 | 4161.6 |
| 20260510073530 | 56 | 295 | 0.0 | 0.0 | 0.00 | 0.00 | 0.00 | 94 | 4161.6 |
| 20260510073027 | 56 | 295 | 0.0 | 0.0 | 0.00 | 0.00 | 0.00 | 94 | 4161.5 |
| 20260510072524 | 57 | 296 | 0.0 | 0.0 | 0.00 | 0.00 | 0.00 | 94 | 4161.4 |
| 20260510072020 | 57 | 295 | 0.0 | 0.0 | 0.00 | 0.00 | 0.00 | 94 | 4161.5 |
| 20260510071516 | 57 | 295 | 0.0 | 0.0 | 0.00 | 0.00 | 0.00 | 94 | 4161.4 |
| 20260510071015 | 57 | 295 | 0.0 | 0.0 | 0.00 | 0.00 | 0.00 | 93 | 4161.4 |
| 20260510070511 | 57 | 295 | 0.0 | 0.0 | 0.00 | 0.00 | 0.00 | 93 | 4161.4 |
| 20260510070008 | 57 | 295 | 0.0 | 0.0 | 0.00 | 0.00 | 0.00 | 93 | 4161.4 |
| 20260510065504 | 57 | 295 | 0.0 | 0.0 | 0.00 | 0.00 | 0.00 | 93 | 4161.5 |
| 20260510065000 | 57 | 297 | 0.0 | 0.0 | 0.00 | 0.00 | 0.00 | 93 | 4161.6 |
| 20260510064457 | 57 | 301 | 0.0 | 0.0 | 0.00 | 0.00 | 0.00 | 93 | 4161.5 |
| 20260510063953 | 57 | 302 | 0.0 | 0.0 | 0.00 | 0.00 | 0.00 | 92 | 4161.6 |
| 20260510063450 | 58 | 302 | 0.0 | 0.0 | 0.00 | 0.00 | 0.00 | 92 | 4161.8 |
| 20260510062948 | 57 | 302 | 0.0 | 0.0 | 0.00 | 0.00 | 0.00 | 92 | 4161.8 |
| 20260510062443 | 57 | 294 | 0.9 | 0.9 | 0.00 | 0.00 | 0.00 | 92 | 4161.8 |
| 20260510061938 | 57 | 293 | 0.0 | 0.9 | 0.00 | 0.00 | 0.00 | 92 | 4161.8 |
| 20260510061435 | 58 | 294 | 0.0 | 0.0 | 0.00 | 0.00 | 0.00 | 92 | 4161.7 |
| 20260510060931 | 58 | 293 | 0.0 | 0.0 | 0.00 | 0.00 | 0.00 | 92 | 4161.8 |
| 20260510060429 | 58 | 293 | 0.0 | 0.0 | 0.00 | 0.00 | 0.00 | 91 | 4161.8 |
| 20260510055925 | 58 | 293 | 0.0 | 0.0 | 0.00 | 0.00 | 0.00 | 91 | 4161.7 |
| 20260510055420 | 59 | 296 | 0.9 | 0.9 | 0.00 | 0.00 | 0.00 | 91 | 4161.8 |
| 20260510054919 | 59 | 329 | 0.0 | 0.0 | 0.00 | 0.00 | 0.00 | 91 | 4161.9 |
| 20260510054414 | 59 | 347 | 0.0 | 0.0 | 0.00 | 0.00 | 0.00 | 91 | 4161.8 |
| 20260510053909 | 59 | 262 | 1.7 | 1.7 | 0.00 | 0.00 | 0.00 | 92 | 4161.8 |
| 20260510053405 | 59 | 315 | 0.0 | 0.0 | 0.00 | 0.00 | 0.00 | 91 | 4161.6 |
| 20260510052901 | 59 | 315 | 0.0 | 0.0 | 0.00 | 0.00 | 0.00 | 91 | 4161.6 |
| 20260510052357 | 59 | 315 | 0.0 | 0.0 | 0.00 | 0.00 | 0.00 | 91 | 4161.4 |
| 20260510051854 | 59 | 315 | 0.0 | 0.0 | 0.00 | 0.00 | 0.00 | 90 | 4161.6 |
| 20260510051350 | 60 | 315 | 0.0 | 0.0 | 0.00 | 0.00 | 0.00 | 90 | 4161.7 |
| 20260510050847 | 60 | 316 | 0.0 | 0.0 | 0.00 | 0.00 | 0.00 | 89 | 4161.5 |
| 20260510050344 | 59 | 315 | 0.0 | 0.0 | 0.00 | 0.00 | 0.00 | 90 | 4161.5 |
| 20260510045841 | 59 | 315 | 0.0 | 0.0 | 0.00 | 0.00 | 0.00 | 89 | 4161.4 |
| 20260510045337 | 60 | 316 | 0.0 | 0.0 | 0.00 | 0.00 | 0.00 | 89 | 4161.6 |
| 20260510044835 | 60 | 316 | 0.0 | 0.0 | 0.00 | 0.00 | 0.00 | 89 | 4161.4 |
| 20260510044331 | 60 | 316 | 0.0 | 0.0 | 0.00 | 0.00 | 0.00 | 88 | 4161.2 |
| 20260510043828 | 60 | 315 | 0.0 | 0.9 | 0.00 | 0.00 | 0.00 | 88 | 4161.4 |
| 20260510043324 | 60 | 316 | 0.0 | 0.0 | 0.00 | 0.00 | 0.00 | 87 | 4161.5 |
| 20260510042822 | 60 | 316 | 0.0 | 0.0 | 0.00 | 0.00 | 0.00 | 86 | 4161.4 |
| 20260510042318 | 60 | 315 | 0.0 | 0.0 | 0.00 | 0.00 | 0.00 | 86 | 4161.3 |
| 20260510041814 | 61 | 316 | 0.0 | 0.9 | 0.00 | 0.00 | 0.00 | 86 | 4161.2 |
| 20260510041311 | 62 | 311 | 0.9 | 0.9 | 0.00 | 0.00 | 0.00 | 85 | 4161.0 |
| 20260510040809 | 62 | 285 | 0.0 | 0.0 | 0.00 | 0.00 | 0.00 | 83 | 4161.3 |
| 20260510040305 | 62 | 307 | 0.0 | 0.0 | 0.00 | 0.00 | 0.00 | 83 | 4161.0 |
| 20260510035801 | 62 | 307 | 0.0 | 0.9 | 0.00 | 0.00 | 0.00 | 82 | 4160.8 |
| 20260510035256 | 62 | 305 | 0.9 | 0.9 | 0.00 | 0.00 | 0.00 | 82 | 4161.2 |
| 20260510034752 | 62 | 322 | 0.0 | 0.0 | 0.00 | 0.00 | 0.00 | 82 | 4161.0 |
| 20260510034250 | 62 | 304 | 0.9 | 0.9 | 0.00 | 0.00 | 0.00 | 83 | 4160.9 |
| 20260510033746 | 62 | 290 | 0.0 | 0.0 | 0.00 | 0.00 | 0.00 | 84 | 4160.8 |
| 20260510033244 | 62 | 290 | 0.0 | 0.0 | 0.00 | 0.00 | 0.00 | 83 | 4160.8 |
| 20260510032740 | 62 | 290 | 0.0 | 0.0 | 0.00 | 0.00 | 0.00 | 83 | 4160.5 |
| 20260510032236 | 63 | 290 | 0.0 | 0.0 | 0.00 | 0.00 | 0.00 | 83 | 4160.7 |
| 20260510031732 | 63 | 290 | 0.0 | 0.0 | 0.00 | 0.00 | 0.00 | 82 | 4160.8 |
| 20260510031227 | 63 | 289 | 0.0 | 0.0 | 0.00 | 0.00 | 0.00 | 82 | 4160.5 |
| 20260510030727 | 63 | 287 | 0.0 | 0.0 | 0.00 | 0.00 | 0.00 | 80 | 4160.5 |
| 20260510030219 | 63 | 295 | 0.0 | 0.0 | 0.00 | 0.00 | 0.00 | 79 | 4160.8 |
| 20260510025717 | 64 | 306 | 0.0 | 0.0 | 0.00 | 0.00 | 0.00 | 78 | 4160.4 |
| 20260510025213 | 64 | 305 | 0.0 | 0.0 | 0.00 | 0.00 | 0.00 | 78 | 4160.3 |
| 20260510024710 | 64 | 305 | 0.0 | 0.0 | 0.00 | 0.00 | 0.00 | 77 | 4160.1 |
| 20260510024207 | 64 | 305 | 0.0 | 0.0 | 0.00 | 0.00 | 0.00 | 76 | 4160.1 |
| 20260510023702 | 65 | 306 | 0.0 | 0.0 | 0.00 | 0.00 | 0.00 | 75 | 4159.9 |
| 20260510023200 | 65 | 306 | 0.9 | 0.9 | 0.00 | 0.00 | 0.00 | 74 | 4159.6 |
| 20260510022655 | 66 | 332 | 0.9 | 0.9 | 0.00 | 0.00 | 0.00 | 73 | 4159.6 |
| 20260510022150 | 66 | 334 | 0.0 | 0.0 | 0.00 | 0.00 | 0.00 | 72 | 4159.5 |
| 20260510021646 | 67 | 333 | 0.9 | 0.9 | 0.00 | 0.00 | 0.00 | 71 | 4159.6 |
| 20260510021143 | 68 | 129 | 0.0 | 0.0 | 0.00 | 0.00 | 0.00 | 70 | 4159.6 |
| 20260510020638 | 69 | 130 | 0.0 | 0.0 | 0.00 | 0.00 | 0.00 | 69 | 4159.0 |
| 20260510020134 | 70 | 143 | 0.0 | 0.0 | 0.00 | 0.00 | 0.00 | 68 | 4159.0 |
| 20260510015630 | 71 | 145 | 0.0 | 0.0 | 0.00 | 0.00 | 0.00 | 65 | 4159.0 |
| 20260510015127 | 71 | 162 | 0.0 | 0.0 | 0.00 | 0.00 | 0.00 | 61 | 4158.9 |
| 20260510014622 | 72 | 161 | 0.0 | 0.0 | 0.00 | 0.00 | 0.00 | 61 | 4158.8 |
| 20260510014119 | 73 | 161 | 0.9 | 0.9 | 0.00 | 0.00 | 0.00 | 60 | 4158.6 |
| 20260510013619 | 73 | 161 | 0.9 | 0.9 | 0.00 | 0.00 | 0.00 | 58 | 4158.8 |
| 20260510013115 | 73 | 176 | 0.9 | 1.7 | 0.00 | 0.00 | 0.00 | 57 | 4158.6 |
| 20260510012615 | 74 | 175 | 0.0 | 0.9 | 0.00 | 0.00 | 0.00 | 55 | 4158.9 |
| 20260510012111 | 75 | 175 | 0.0 | 0.9 | 0.00 | 0.00 | 0.00 | 53 | 4158.6 |
| 20260510011611 | 75 | 175 | 0.0 | 0.9 | 0.00 | 0.00 | 0.00 | 52 | 4158.4 |
| 20260510011107 | 76 | 175 | 0.0 | 0.0 | 0.00 | 0.00 | 0.00 | 51 | 4158.3 |
| 20260510010603 | 77 | 175 | 0.9 | 0.9 | 0.00 | 0.00 | 0.00 | 48 | 4158.4 |
| 20260510010101 | 77 | 176 | 0.0 | 0.0 | 0.00 | 0.00 | 0.00 | 47 | 4158.3 |
| 20260510005556 | 78 | 177 | 0.0 | 0.0 | 0.00 | 0.00 | 0.00 | 45 | 4158.1 |
| 20260510005054 | 78 | 178 | 0.0 | 0.0 | 0.00 | 0.00 | 0.00 | 44 | 4158.1 |
| 20260510004552 | 79 | 190 | 0.9 | 0.9 | 0.00 | 0.00 | 0.00 | 44 | 4158.0 |
| 20260510004050 | 79 | 192 | 0.0 | 0.9 | 0.00 | 0.00 | 0.00 | 42 | 4158.0 |
| 20260510003546 | 80 | 201 | 0.9 | 1.7 | 0.00 | 0.00 | 0.00 | 41 | 4158.1 |
| 20260510003041 | 81 | 188 | 0.9 | 0.9 | 0.00 | 0.00 | 0.00 | 40 | 4158.1 |
| 20260510002537 | 82 | 195 | 0.9 | 0.9 | 0.00 | 0.00 | 0.00 | 39 | 4158.0 |
| 20260510002034 | 83 | 189 | 0.0 | 0.0 | 0.00 | 0.00 | 0.00 | 37 | 4157.9 |
| 20260510001531 | 84 | 185 | 0.0 | 0.0 | 0.00 | 0.00 | 0.00 | 36 | 4157.8 |
| 20260510001030 | 85 | 184 | 0.0 | 0.0 | 0.00 | 0.00 | 0.00 | 35 | 4157.9 |
| 20260510000524 | 84 | 173 | 0.0 | 0.0 | 0.00 | 0.00 | 0.00 | 35 | 4157.8 |
| 20260510000022 | 84 | 172 | 0.0 | 0.0 | 0.00 | 0.00 | 0.00 | 36 | 4157.9 |
| 20260509235518 | 83 | 115 | 0.9 | 0.9 | 0.00 | 0.00 | 0.00 | 35 | 4158.0 |
| 20260509235015 | 83 | 178 | 0.9 | 0.9 | 0.00 | 0.00 | 0.00 | 34 | 4157.9 |
| 20260509234511 | 83 | 188 | 0.0 | 0.9 | 0.00 | 0.00 | 0.00 | 36 | 4157.8 |
| 20260509234010 | 84 | 190 | 0.9 | 1.7 | 0.00 | 0.00 | 0.00 | 34 | 4158.0 |
| 20260509233506 | 83 | 200 | 0.0 | 0.0 | 0.00 | 0.00 | 0.00 | 35 | 4157.8 |
| 20260509233003 | 83 | 170 | 0.9 | 0.9 | 0.00 | 0.00 | 0.00 | 36 | 4158.0 |
| 20260509232501 | 83 | 205 | 0.9 | 0.9 | 0.00 | 0.00 | 0.00 | 34 | 4158.1 |
| 20260509231956 | 85 | 215 | 0.9 | 0.9 | 0.00 | 0.00 | 0.00 | 34 | 4158.0 |
| 20260509231453 | 84 | 163 | 0.0 | 0.9 | 0.00 | 0.00 | 0.00 | 35 | 4158.0 |
| 20260509230951 | 83 | 168 | 0.9 | 0.9 | 0.00 | 0.00 | 0.00 | 36 | 4158.2 |
| 20260509230448 | 83 | 176 | 0.9 | 0.9 | 0.00 | 0.00 | 0.00 | 35 | 4157.9 |
| 20260509225944 | 84 | 199 | 0.9 | 0.9 | 0.00 | 0.00 | 0.00 | 34 | 4157.8 |
| 20260509225440 | 85 | 195 | 0.9 | 0.9 | 0.00 | 0.00 | 0.00 | 34 | 4157.9 |
| 20260509224936 | 84 | 151 | 0.0 | 0.0 | 0.00 | 0.00 | 0.00 | 35 | 4157.8 |
| 20260509224431 | 86 | 137 | 0.9 | 0.9 | 0.00 | 0.00 | 0.00 | 34 | 4157.9 |
| 20260509223929 | 85 | 205 | 0.0 | 0.0 | 0.00 | 0.00 | 0.00 | 35 | 4157.7 |
| 20260509223425 | 84 | 308 | 0.9 | 1.7 | 0.00 | 0.00 | 0.00 | 34 | 4157.8 |
| 20260509222923 | 84 | 309 | 0.9 | 1.7 | 0.00 | 0.00 | 0.00 | 37 | 4157.8 |
| 20260509222418 | 84 | 347 | 3.5 | 4.3 | 0.00 | 0.00 | 0.00 | 38 | 4158.0 |
| 20260509221914 | 84 | 154 | 0.9 | 1.7 | 0.00 | 0.00 | 0.00 | 37 | 4157.8 |
| 20260509221411 | 84 | 50 | 0.9 | 0.9 | 0.00 | 0.00 | 0.00 | 36 | 4157.9 |
| 20260509220907 | 84 | 214 | 0.0 | 0.9 | 0.00 | 0.00 | 0.00 | 36 | 4157.9 |
| 20260509220403 | 83 | 216 | 1.7 | 1.7 | 0.00 | 0.00 | 0.00 | 38 | 4157.9 |
| 20260509215858 | 82 | 179 | 0.9 | 0.9 | 0.00 | 0.00 | 0.00 | 40 | 4157.9 |
| 20260509215355 | 82 | 88 | 0.9 | 0.9 | 0.00 | 0.00 | 0.00 | 38 | 4158.0 |
| 20260509214852 | 82 | 77 | 0.9 | 1.7 | 0.00 | 0.00 | 0.00 | 37 | 4158.1 |
| 20260509214349 | 83 | 183 | 0.9 | 0.9 | 0.00 | 0.00 | 0.00 | 38 | 4158.1 |
| 20260509213846 | 84 | 155 | 0.0 | 0.9 | 0.00 | 0.00 | 0.00 | 36 | 4158.0 |
| 20260509213341 | 83 | 163 | 0.0 | 0.9 | 0.00 | 0.00 | 0.00 | 36 | 4157.9 |
| 20260509212839 | 82 | 145 | 0.9 | 0.9 | 0.00 | 0.00 | 0.00 | 36 | 4158.2 |
| 20260509212337 | 82 | 178 | 0.9 | 0.9 | 0.00 | 0.00 | 0.00 | 38 | 4158.1 |
| 20260509211832 | 83 | 159 | 1.7 | 1.7 | 0.00 | 0.00 | 0.00 | 37 | 4158.0 |
| 20260509211328 | 82 | 192 | 0.9 | 1.7 | 0.00 | 0.00 | 0.00 | 38 | 4158.2 |
| 20260509210825 | 84 | 154 | 0.0 | 0.0 | 0.00 | 0.00 | 0.00 | 38 | 4158.2 |
| 20260509210323 | 83 | 127 | 0.9 | 0.9 | 0.00 | 0.00 | 0.00 | 35 | 4158.1 |
| 20260509205822 | 83 | 192 | 2.6 | 2.6 | 0.00 | 0.00 | 0.00 | 37 | 4158.1 |
| 20260509205317 | 83 | 112 | 0.0 | 0.9 | 0.00 | 0.00 | 0.00 | 35 | 4158.2 |
| 20260509204814 | 84 | 142 | 0.9 | 0.9 | 0.00 | 0.00 | 0.00 | 36 | 4158.2 |
| 20260509204310 | 84 | 176 | 0.9 | 0.9 | 0.00 | 0.00 | 0.00 | 35 | 4158.3 |
| 20260509203806 | 85 | 129 | 0.9 | 1.7 | 0.00 | 0.00 | 0.00 | 33 | 4158.3 |
| 20260509203304 | 85 | 130 | 0.9 | 0.9 | 0.00 | 0.00 | 0.00 | 35 | 4158.2 |
| 20260509202800 | 84 | 186 | 0.0 | 0.0 | 0.00 | 0.00 | 0.00 | 37 | 4158.3 |
| 20260509202256 | 83 | 205 | 0.9 | 0.9 | 0.00 | 0.00 | 0.00 | 37 | 4158.4 |
| 20260509201755 | 86 | 190 | 0.9 | 0.9 | 0.00 | 0.00 | 0.00 | 34 | 4158.6 |
| 20260509201253 | 88 | 113 | 0.9 | 1.7 | 0.00 | 0.00 | 0.00 | 31 | 4158.6 |
| 20260509200749 | 86 | 184 | 0.9 | 0.9 | 0.00 | 0.00 | 0.00 | 32 | 4158.4 |
| 20260509200244 | 86 | 90 | 0.9 | 0.9 | 0.00 | 0.00 | 0.00 | 32 | 4158.7 |
| 20260509195740 | 86 | 209 | 1.7 | 2.6 | 0.00 | 0.00 | 0.00 | 35 | 4159.0 |
| 20260509195236 | 86 | 152 | 0.9 | 0.9 | 0.00 | 0.00 | 0.00 | 33 | 4158.8 |
| 20260509194731 | 88 | 173 | 1.7 | 1.7 | 0.00 | 0.00 | 0.00 | 34 | 4158.8 |
| 20260509194227 | 86 | 152 | 0.0 | 0.0 | 0.00 | 0.00 | 0.00 | 33 | 4159.0 |
| 20260509193724 | 84 | 153 | 0.9 | 1.7 | 0.00 | 0.00 | 0.00 | 36 | 4158.8 |
| 20260509193224 | 85 | 197 | 1.7 | 1.7 | 0.00 | 0.00 | 0.00 | 35 | 4159.0 |
| 20260509192720 | 85 | 126 | 0.9 | 0.9 | 0.00 | 0.00 | 0.00 | 33 | 4159.1 |
| 20260509192215 | 84 | 170 | 0.9 | 1.7 | 0.00 | 0.00 | 0.00 | 35 | 4159.0 |
| 20260509191711 | 84 | 139 | 0.9 | 1.7 | 0.00 | 0.00 | 0.00 | 35 | 4159.1 |
| 20260509191207 | 84 | 315 | 0.9 | 0.9 | 0.00 | 0.00 | 0.00 | 35 | 4159.3 |
| 20260509190703 | 84 | 195 | 2.6 | 2.6 | 0.00 | 0.00 | 0.00 | 34 | 4159.3 |
| 20260509190201 | 84 | 160 | 0.9 | 1.7 | 0.00 | 0.00 | 0.00 | 33 | 4159.1 |
| 20260509185659 | 86 | 199 | 1.7 | 1.7 | 0.00 | 0.00 | 0.00 | 33 | 4159.0 |
| 20260509185154 | 84 | 241 | 0.0 | 0.9 | 0.00 | 0.00 | 0.00 | 34 | 4159.1 |
| 20260509184652 | 83 | 223 | 2.6 | 2.6 | 0.00 | 0.00 | 0.00 | 36 | 4159.2 |
| 20260509184149 | 84 | 204 | 0.9 | 1.7 | 0.00 | 0.00 | 0.00 | 34 | 4159.0 |
| 20260509183645 | 84 | 188 | 0.9 | 0.9 | 0.00 | 0.00 | 0.00 | 33 | 4159.3 |
| 20260509183140 | 84 | 200 | 2.6 | 4.3 | 0.00 | 0.00 | 0.00 | 32 | 4159.2 |
| 20260509182636 | 84 | 182 | 1.7 | 1.7 | 0.00 | 0.00 | 0.00 | 34 | 4159.2 |
| 20260509182134 | 85 | 191 | 0.9 | 0.9 | 0.00 | 0.00 | 0.00 | 35 | 4159.1 |
| 20260509181632 | 85 | 229 | 2.6 | 2.6 | 0.00 | 0.00 | 0.00 | 35 | 4159.2 |
| 20260509181129 | 86 | 251 | 0.9 | 1.7 | 0.00 | 0.00 | 0.00 | 33 | 4159.0 |
| 20260509180625 | 84 | 164 | 0.9 | 1.7 | 0.00 | 0.00 | 0.00 | 33 | 4159.3 |
| 20260509180122 | 82 | 182 | 2.6 | 2.6 | 0.00 | 0.00 | 0.00 | 34 | 4159.3 |
| 20260509175617 | 82 | 166 | 1.7 | 1.7 | 0.00 | 0.00 | 0.00 | 38 | 4159.4 |
| 20260509175115 | 82 | 247 | 0.9 | 1.7 | 0.00 | 0.00 | 0.00 | 38 | 4159.3 |
| 20260509174611 | 82 | 153 | 1.7 | 1.7 | 0.00 | 0.00 | 0.00 | 36 | 4159.3 |
| 20260509174106 | 83 | 311 | 0.9 | 0.9 | 0.00 | 0.00 | 0.00 | 38 | 4159.5 |
| 20260509173601 | 83 | 238 | 0.9 | 0.9 | 0.00 | 0.00 | 0.00 | 38 | 4159.4 |
| 20260509173058 | 82 | 190 | 0.0 | 0.9 | 0.00 | 0.00 | 0.00 | 40 | 4159.6 |
| 20260509172555 | 82 | 248 | 0.9 | 0.9 | 0.00 | 0.00 | 0.00 | 42 | 4159.8 |
| 20260509172051 | 82 | 212 | 0.0 | 0.9 | 0.00 | 0.00 | 0.00 | 43 | 4159.8 |
| 20260509171546 | 81 | 202 | 2.6 | 2.6 | 0.00 | 0.00 | 0.00 | 45 | 4159.9 |
| 20260509171043 | 81 | 204 | 1.7 | 1.7 | 0.00 | 0.00 | 0.00 | 48 | 4159.7 |
| 20260509170539 | 81 | 172 | 0.9 | 1.7 | 0.00 | 0.00 | 0.00 | 49 | 4159.6 |
| 20260509170035 | 81 | 163 | 0.9 | 1.7 | 0.00 | 0.00 | 0.00 | 52 | 4159.8 |
| 20260509165534 | 81 | 229 | 0.9 | 0.9 | 0.00 | 0.00 | 0.00 | 51 | 4159.9 |
| 20260509165029 | 80 | 118 | 0.9 | 0.9 | 0.00 | 0.00 | 0.00 | 53 | 4159.9 |
| 20260509164526 | 78 | 48 | 0.9 | 1.7 | 0.00 | 0.00 | 0.00 | 55 | 4159.8 |
| 20260509164021 | 79 | 189 | 1.7 | 1.7 | 0.00 | 0.00 | 0.00 | 56 | 4160.0 |
| 20260509163519 | 78 | 238 | 0.9 | 0.9 | 0.00 | 0.00 | 0.00 | 57 | 4159.9 |
| 20260509163014 | 76 | 221 | 0.9 | 0.9 | 0.00 | 0.00 | 0.00 | 60 | 4159.9 |
| 20260509162512 | 77 | 186 | 2.6 | 2.6 | 0.00 | 0.00 | 0.00 | 60 | 4160.0 |
| 20260509162008 | 79 | 156 | 0.9 | 0.9 | 0.00 | 0.00 | 0.00 | 58 | 4160.0 |
| 20260509161505 | 76 | 4 | 0.9 | 0.9 | 0.00 | 0.00 | 0.00 | 60 | 4159.9 |
| 20260509160959 | 75 | 242 | 0.9 | 0.9 | 0.00 | 0.00 | 0.00 | 63 | 4160.0 |
| 20260509160455 | 75 | 194 | 2.6 | 2.6 | 0.00 | 0.00 | 0.00 | 64 | 4159.8 |
| 20260509155956 | 76 | 193 | 2.6 | 2.6 | 0.00 | 0.00 | 0.00 | 62 | 4160.1 |
| 20260509155453 | 75 | 130 | 0.9 | 0.9 | 0.00 | 0.00 | 0.00 | 64 | 4159.8 |
| 20260509154949 | 74 | 217 | 0.9 | 1.7 | 0.00 | 0.00 | 0.00 | 65 | 4159.9 |
| 20260509154445 | 74 | 177 | 0.9 | 1.7 | 0.00 | 0.00 | 0.00 | 64 | 4159.9 |
| 20260509153943 | 74 | 188 | 0.9 | 1.7 | 0.00 | 0.00 | 0.00 | 66 | 4159.9 |
| 20260509153440 | 74 | 13 | 0.0 | 0.0 | 0.00 | 0.00 | 0.00 | 66 | 4159.8 |
| 20260509152937 | 74 | 101 | 0.9 | 0.9 | 0.00 | 0.00 | 0.00 | 65 | 4159.8 |
| 20260509152432 | 75 | 175 | 0.0 | 0.0 | 0.00 | 0.00 | 0.00 | 65 | 4159.8 |
| 20260509151930 | 73 | 137 | 0.9 | 0.9 | 0.00 | 0.00 | 0.00 | 65 | 4159.7 |
| 20260509151426 | 73 | 323 | 2.6 | 2.6 | 0.00 | 0.00 | 0.00 | 67 | 4160.1 |
| 20260509150924 | 74 | 144 | 0.9 | 0.9 | 0.00 | 0.00 | 0.00 | 66 | 4159.7 |
| 20260509150421 | 71 | 146 | 0.0 | 0.9 | 0.00 | 0.00 | 0.00 | 69 | 4159.7 |
| 20260509145920 | 72 | 186 | 0.9 | 0.9 | 0.00 | 0.00 | 0.00 | 70 | 4159.8 |
| 20260509145420 | 71 | 98 | 0.0 | 0.9 | 0.00 | 0.00 | 0.00 | 71 | 4159.7 |
| 20260509144915 | 71 | 201 | 0.0 | 0.9 | 0.00 | 0.00 | 0.00 | 72 | 4159.9 |
| 20260509144412 | 70 | 191 | 0.9 | 1.7 | 0.00 | 0.00 | 0.00 | 72 | 4159.9 |
| 20260509143909 | 68 | 178 | 0.9 | 0.9 | 0.00 | 0.00 | 0.00 | 76 | 4160.1 |
| 20260509143407 | 69 | 213 | 1.7 | 1.7 | 0.00 | 0.00 | 0.00 | 76 | 4160.0 |
| 20260509142903 | 69 | 146 | 1.7 | 1.7 | 0.00 | 0.00 | 0.00 | 75 | 4159.9 |
| 20260509142359 | 69 | 155 | 0.0 | 0.9 | 0.00 | 0.00 | 0.00 | 75 | 4159.9 |
| 20260509141855 | 67 | 171 | 0.0 | 0.0 | 0.00 | 0.00 | 0.00 | 77 | 4159.8 |
| 20260509141353 | 68 | 302 | 1.7 | 1.7 | 0.00 | 0.00 | 0.00 | 77 | 4159.9 |
| 20260509140849 | 67 | 67 | 0.9 | 0.9 | 0.00 | 0.00 | 0.00 | 79 | 4159.8 |
| 20260509140345 | 67 | 279 | 0.9 | 0.9 | 0.00 | 0.00 | 0.00 | 80 | 4159.8 |
| 20260509135844 | 66 | 280 | 0.0 | 0.9 | 0.00 | 0.00 | 0.00 | 81 | 4160.0 |
| 20260509135341 | 65 | 142 | 0.9 | 1.7 | 0.00 | 0.00 | 0.00 | 82 | 4159.9 |
| 20260509134838 | 64 | 155 | 0.0 | 0.9 | 0.00 | 0.00 | 0.00 | 83 | 4159.7 |
| 20260509134335 | 63 | 118 | 0.0 | 0.0 | 0.00 | 0.00 | 0.00 | 86 | 4159.6 |
| 20260509133832 | 62 | 176 | 1.7 | 1.7 | 0.00 | 0.00 | 0.00 | 86 | 4159.8 |
| 20260509133329 | 61 | 170 | 0.0 | 0.0 | 0.00 | 0.00 | 0.00 | 89 | 4159.7 |
| 20260509132828 | 60 | 166 | 0.9 | 0.9 | 0.00 | 0.00 | 0.00 | 91 | 4159.8 |
| 20260509132325 | 59 | 177 | 0.9 | 0.9 | 0.00 | 0.00 | 0.00 | 93 | 4159.5 |
| 20260509131822 | 58 | 187 | 0.9 | 0.9 | 0.00 | 0.00 | 0.00 | 95 | 4159.6 |
| 20260509131319 | 57 | 180 | 1.7 | 1.7 | 0.00 | 0.00 | 0.00 | 97 | 4159.5 |
| 20260509130815 | 56 | 87 | 0.0 | 0.0 | 0.00 | 0.00 | 0.00 | 98 | 4159.7 |
| 20260509130311 | 55 | 87 | 0.0 | 0.0 | 0.00 | 0.00 | 0.00 | 98 | 4159.3 |
| 20260509125808 | 55 | 80 | 0.0 | 0.0 | 0.00 | 0.00 | 0.00 | 99 | 4159.7 |
| 20260509125307 | 54 | 30 | 0.0 | 0.0 | 0.00 | 0.00 | 0.00 | 99 | 4159.5 |
| 20260509124801 | 53 | 14 | 0.0 | 0.0 | 0.00 | 0.00 | 0.00 | 99 | 4159.4 |
| 20260509124257 | 53 | 272 | 0.0 | 0.0 | 0.00 | 0.00 | 0.00 | 99 | 4159.5 |
| 20260509123756 | 53 | 267 | 0.0 | 0.0 | 0.00 | 0.00 | 0.00 | 99 | 4159.5 |
| 20260509123253 | 52 | 267 | 0.0 | 0.0 | 0.00 | 0.00 | 0.00 | 99 | 4159.4 |
| 20260509122748 | 52 | 267 | 0.0 | 0.0 | 0.00 | 0.00 | 0.00 | 99 | 4159.5 |
| 20260509122246 | 51 | 267 | 0.0 | 0.0 | 0.00 | 0.00 | 0.00 | 99 | 4159.5 |
| 20260509121742 | 51 | 267 | 0.0 | 0.0 | 0.00 | 0.00 | 0.00 | 99 | 4159.3 |
| 20260509121239 | 51 | 267 | 0.0 | 0.0 | 0.00 | 0.00 | 0.00 | 99 | 4159.2 |
| 20260509120738 | 51 | 267 | 0.0 | 0.0 | 0.00 | 0.00 | 0.00 | 99 | 4159.2 |
| 20260509120235 | 51 | 267 | 0.0 | 0.0 | 0.00 | 0.00 | 0.00 | 99 | 4159.1 |
| 20260509115733 | 51 | 267 | 0.0 | 0.0 | 0.00 | 0.00 | 0.00 | 99 | 4159.2 |
| 20260509115230 | 50 | 266 | 0.0 | 0.0 | 0.00 | 0.00 | 0.00 | 99 | 4159.3 |
| 20260509114728 | 50 | 267 | 0.0 | 0.0 | 0.00 | 0.00 | 0.00 | 98 | 4159.1 |
| 20260509114226 | 50 | 267 | 0.0 | 0.0 | 0.00 | 0.00 | 0.00 | 98 | 4158.8 |
| 20260509113725 | 50 | 263 | 0.0 | 0.0 | 0.00 | 0.00 | 0.00 | 98 | 4158.9 |
| 20260509113221 | 50 | 260 | 0.0 | 0.0 | 0.00 | 0.00 | 0.00 | 98 | 4158.8 |
| 20260509112719 | 50 | 259 | 0.0 | 0.0 | 0.00 | 0.00 | 0.00 | 98 | 4158.8 |
| 20260509112216 | 50 | 259 | 0.0 | 0.0 | 0.00 | 0.00 | 0.00 | 98 | 4158.7 |
| 20260509111713 | 50 | 260 | 0.0 | 0.0 | 0.00 | 0.00 | 0.00 | 98 | 4158.4 |
| 20260509111209 | 51 | 214 | 0.0 | 0.0 | 0.00 | 0.00 | 0.00 | 98 | 4158.3 |
| 20260509110707 | 50 | 214 | 0.0 | 0.0 | 0.00 | 0.00 | 0.00 | 98 | 4158.4 |
| 20260509110203 | 51 | 214 | 0.0 | 0.0 | 0.00 | 0.00 | 0.00 | 98 | 4158.2 |
| 20260509105701 | 51 | 214 | 0.0 | 0.0 | 0.00 | 0.00 | 0.00 | 98 | 4158.7 |
| 20260509105158 | 51 | 233 | 0.0 | 0.0 | 0.00 | 0.00 | 0.00 | 98 | 4158.4 |
| 20260509104655 | 51 | 234 | 0.0 | 0.0 | 0.00 | 0.00 | 0.00 | 98 | 4158.3 |
| 20260509104152 | 51 | 220 | 0.0 | 0.0 | 0.00 | 0.00 | 0.00 | 97 | 4158.3 |
| 20260509103650 | 51 | 214 | 0.0 | 0.0 | 0.00 | 0.00 | 0.00 | 97 | 4158.3 |
| 20260509103148 | 51 | 213 | 0.0 | 0.0 | 0.00 | 0.00 | 0.00 | 97 | 4158.2 |
| 20260509102646 | 51 | 248 | 0.0 | 0.0 | 0.00 | 0.00 | 0.00 | 97 | 4158.2 |
| 20260509102142 | 52 | 263 | 0.0 | 0.0 | 0.00 | 0.00 | 0.00 | 97 | 4158.4 |
| 20260509101638 | 52 | 205 | 0.0 | 0.0 | 0.00 | 0.00 | 0.00 | 97 | 4158.4 |
| 20260509101135 | 53 | 187 | 0.0 | 0.0 | 0.00 | 0.00 | 0.00 | 97 | 4158.6 |
| 20260509100633 | 53 | 188 | 0.0 | 0.9 | 0.00 | 0.00 | 0.00 | 97 | 4158.3 |
| 20260509100130 | 53 | 191 | 0.0 | 0.0 | 0.00 | 0.00 | 0.00 | 97 | 4158.3 |
| 20260509095626 | 53 | 192 | 0.0 | 0.0 | 0.00 | 0.00 | 0.00 | 96 | 4158.3 |